sensor_id;sensor_type;location;lat;lon;timestamp;P1;durP1;ratioP1;P2;durP2;ratioP2
14272;SDS011;7220;49.450;11.052;2024-03-23T00:54:15;3.42;;;3.00;;
14272;SDS011;7220;49.450;11.052;2024-03-23T00:58:15;4.63;;;3.30;;
14272;SDS011;7220;49.450;11.052;2024-03-23T01:02:16;5.07;;;3.83;;
14272;SDS011;7220;49.450;11.052;2024-03-23T01:06:16;5.63;;;3.92;;
14272;SDS011;7220;49.450;11.052;2024-03-23T01:10:16;5.28;;;3.50;;
14272;SDS011;7220;49.450;11.052;2024-03-23T01:14:17;5.10;;;3.65;;
14272;SDS011;7220;49.450;11.052;2024-03-23T01:18:18;4.38;;;3.60;;
14272;SDS011;7220;49.450;11.052;2024-03-23T01:22:19;3.97;;;3.38;;
14272;SDS011;7220;49.450;11.052;2024-03-23T01:26:19;6.80;;;3.85;;
14272;SDS011;7220;49.450;11.052;2024-03-23T01:30:20;7.13;;;4.55;;
14272;SDS011;7220;49.450;11.052;2024-03-23T01:34:20;7.05;;;4.10;;
14272;SDS011;7220;49.450;11.052;2024-03-23T01:38:21;5.15;;;3.63;;
14272;SDS011;7220;49.450;11.052;2024-03-23T01:42:21;6.75;;;3.70;;
14272;SDS011;7220;49.450;11.052;2024-03-23T01:46:22;5.15;;;3.22;;
14272;SDS011;7220;49.450;11.052;2024-03-23T01:50:22;5.03;;;3.75;;
14272;SDS011;7220;49.450;11.052;2024-03-23T01:54:26;5.50;;;3.78;;
14272;SDS011;7220;49.450;11.052;2024-03-23T01:58:27;6.60;;;3.80;;
14272;SDS011;7220;49.450;11.052;2024-03-23T02:02:28;4.88;;;3.78;;
14272;SDS011;7220;49.450;11.052;2024-03-23T02:06:28;4.75;;;3.83;;
14272;SDS011;7220;49.450;11.052;2024-03-23T02:10:29;6.25;;;3.88;;
14272;SDS011;7220;49.450;11.052;2024-03-23T02:14:29;4.28;;;3.75;;
14272;SDS011;7220;49.450;11.052;2024-03-23T02:18:29;3.92;;;2.95;;
14272;SDS011;7220;49.450;11.052;2024-03-23T02:22:36;4.45;;;3.45;;
14272;SDS011;7220;49.450;11.052;2024-03-23T02:26:37;4.93;;;3.53;;
14272;SDS011;7220;49.450;11.052;2024-03-23T02:30:38;5.38;;;3.60;;
14272;SDS011;7220;49.450;11.052;2024-03-23T02:34:38;4.13;;;3.38;;
14272;SDS011;7220;49.450;11.052;2024-03-23T02:38:39;4.45;;;3.28;;
14272;SDS011;7220;49.450;11.052;2024-03-23T02:42:39;4.22;;;3.45;;
14272;SDS011;7220;49.450;11.052;2024-03-23T02:46:39;3.90;;;3.10;;
14272;SDS011;7220;49.450;11.052;2024-03-23T02:50:40;5.35;;;3.47;;
14272;SDS011;7220;49.450;11.052;2024-03-23T02:54:40;6.03;;;3.83;;
14272;SDS011;7220;49.450;11.052;2024-03-23T02:58:44;4.85;;;3.20;;
14272;SDS011;7220;49.450;11.052;2024-03-23T03:02:45;4.50;;;3.45;;
14272;SDS011;7220;49.450;11.052;2024-03-23T03:06:48;7.57;;;3.65;;
14272;SDS011;7220;49.450;11.052;2024-03-23T03:10:49;5.50;;;4.07;;
14272;SDS011;7220;49.450;11.052;2024-03-23T03:14:49;6.07;;;3.97;;
14272;SDS011;7220;49.450;11.052;2024-03-23T03:18:50;5.10;;;3.63;;
14272;SDS011;7220;49.450;11.052;2024-03-23T03:22:50;4.15;;;3.45;;
14272;SDS011;7220;49.450;11.052;2024-03-23T03:26:53;6.03;;;3.40;;
14272;SDS011;7220;49.450;11.052;2024-03-23T03:30:53;3.65;;;3.17;;
14272;SDS011;7220;49.450;11.052;2024-03-23T03:34:54;3.40;;;3.10;;
14272;SDS011;7220;49.450;11.052;2024-03-23T03:38:54;5.85;;;3.90;;
14272;SDS011;7220;49.450;11.052;2024-03-23T03:42:55;4.75;;;4.00;;
14272;SDS011;7220;49.450;11.052;2024-03-23T03:46:55;4.18;;;3.42;;
14272;SDS011;7220;49.450;11.052;2024-03-23T03:50:55;5.72;;;3.72;;
14272;SDS011;7220;49.450;11.052;2024-03-23T03:55:00;7.15;;;3.70;;
14272;SDS011;7220;49.450;11.052;2024-03-23T03:59:02;5.63;;;3.75;;
14272;SDS011;7220;49.450;11.052;2024-03-23T04:03:03;5.00;;;3.65;;
14272;SDS011;7220;49.450;11.052;2024-03-23T04:07:03;5.65;;;4.20;;
14272;SDS011;7220;49.450;11.052;2024-03-23T04:11:05;5.18;;;4.35;;
14272;SDS011;7220;49.450;11.052;2024-03-23T04:15:05;6.03;;;3.70;;
14272;SDS011;7220;49.450;11.052;2024-03-23T04:19:06;5.25;;;3.97;;
14272;SDS011;7220;49.450;11.052;2024-03-23T04:23:06;5.18;;;3.75;;
14272;SDS011;7220;49.450;11.052;2024-03-23T04:27:07;5.70;;;4.00;;
14272;SDS011;7220;49.450;11.052;2024-03-23T04:31:07;4.57;;;3.53;;
14272;SDS011;7220;49.450;11.052;2024-03-23T04:35:08;4.80;;;4.00;;
14272;SDS011;7220;49.450;11.052;2024-03-23T04:39:11;4.40;;;3.17;;
14272;SDS011;7220;49.450;11.052;2024-03-23T04:43:11;4.90;;;3.47;;
14272;SDS011;7220;49.450;11.052;2024-03-23T04:47:12;5.55;;;3.83;;
14272;SDS011;7220;49.450;11.052;2024-03-23T04:51:25;4.20;;;3.28;;
14272;SDS011;7220;49.450;11.052;2024-03-23T04:55:26;5.10;;;3.72;;
14272;SDS011;7220;49.450;11.052;2024-03-23T04:59:26;5.03;;;3.25;;
14272;SDS011;7220;49.450;11.052;2024-03-23T05:03:27;4.28;;;3.63;;
14272;SDS011;7220;49.450;11.052;2024-03-23T05:07:27;4.00;;;3.13;;
14272;SDS011;7220;49.450;11.052;2024-03-23T05:11:28;4.70;;;3.92;;
14272;SDS011;7220;49.450;11.052;2024-03-23T05:15:28;5.20;;;3.63;;
14272;SDS011;7220;49.450;11.052;2024-03-23T05:19:29;4.30;;;2.90;;
14272;SDS011;7220;49.450;11.052;2024-03-23T05:23:30;5.15;;;3.45;;
14272;SDS011;7220;49.450;11.052;2024-03-23T05:27:33;4.10;;;2.63;;
14272;SDS011;7220;49.450;11.052;2024-03-23T05:31:34;4.35;;;3.30;;
14272;SDS011;7220;49.450;11.052;2024-03-23T05:35:34;7.30;;;4.25;;
14272;SDS011;7220;49.450;11.052;2024-03-23T05:39:35;5.80;;;3.97;;
14272;SDS011;7220;49.450;11.052;2024-03-23T05:43:35;10.60;;;4.55;;
14272;SDS011;7220;49.450;11.052;2024-03-23T05:47:36;8.38;;;4.57;;
14272;SDS011;7220;49.450;11.052;2024-03-23T05:51:36;5.72;;;3.92;;
14272;SDS011;7220;49.450;11.052;2024-03-23T05:55:36;4.53;;;2.90;;
14272;SDS011;7220;49.450;11.052;2024-03-23T05:59:37;3.92;;;2.97;;
14272;SDS011;7220;49.450;11.052;2024-03-23T06:03:38;2.40;;;2.20;;
14272;SDS011;7220;49.450;11.052;2024-03-23T06:07:38;3.13;;;2.83;;
14272;SDS011;7220;49.450;11.052;2024-03-23T06:11:39;3.17;;;2.45;;
14272;SDS011;7220;49.450;11.052;2024-03-23T06:15:39;3.17;;;2.88;;
14272;SDS011;7220;49.450;11.052;2024-03-23T06:19:40;3.00;;;2.67;;
14272;SDS011;7220;49.450;11.052;2024-03-23T06:23:41;3.08;;;2.70;;
14272;SDS011;7220;49.450;11.052;2024-03-23T06:27:42;3.92;;;2.90;;
14272;SDS011;7220;49.450;11.052;2024-03-23T06:31:43;3.72;;;2.47;;
14272;SDS011;7220;49.450;11.052;2024-03-23T06:35:44;4.25;;;3.50;;
14272;SDS011;7220;49.450;11.052;2024-03-23T06:39:50;5.63;;;3.67;;
14272;SDS011;7220;49.450;11.052;2024-03-23T06:43:50;4.90;;;3.80;;
14272;SDS011;7220;49.450;11.052;2024-03-23T06:47:51;6.40;;;4.13;;
14272;SDS011;7220;49.450;11.052;2024-03-23T06:51:52;7.03;;;4.75;;
14272;SDS011;7220;49.450;11.052;2024-03-23T06:55:53;5.78;;;4.40;;
14272;SDS011;7220;49.450;11.052;2024-03-23T06:59:53;4.78;;;3.58;;
14272;SDS011;7220;49.450;11.052;2024-03-23T07:03:54;6.57;;;4.28;;
14272;SDS011;7220;49.450;11.052;2024-03-23T07:07:55;6.45;;;4.43;;
14272;SDS011;7220;49.450;11.052;2024-03-23T07:11:58;4.50;;;3.22;;
14272;SDS011;7220;49.450;11.052;2024-03-23T07:15:59;6.57;;;3.78;;
14272;SDS011;7220;49.450;11.052;2024-03-23T07:20:00;4.78;;;3.30;;
14272;SDS011;7220;49.450;11.052;2024-03-23T07:24:03;4.30;;;3.22;;
14272;SDS011;7220;49.450;11.052;2024-03-23T07:28:04;4.10;;;2.97;;
14272;SDS011;7220;49.450;11.052;2024-03-23T07:32:04;4.30;;;2.95;;
14272;SDS011;7220;49.450;11.052;2024-03-23T07:36:05;3.72;;;3.05;;
14272;SDS011;7220;49.450;11.052;2024-03-23T07:40:06;3.20;;;2.45;;
14272;SDS011;7220;49.450;11.052;2024-03-23T07:44:07;3.50;;;2.92;;
14272;SDS011;7220;49.450;11.052;2024-03-23T07:48:07;3.72;;;2.60;;
14272;SDS011;7220;49.450;11.052;2024-03-23T07:52:08;4.28;;;2.85;;
14272;SDS011;7220;49.450;11.052;2024-03-23T07:56:08;2.78;;;2.50;;
14272;SDS011;7220;49.450;11.052;2024-03-23T08:00:10;4.47;;;2.85;;
14272;SDS011;7220;49.450;11.052;2024-03-23T08:04:11;4.65;;;3.15;;
14272;SDS011;7220;49.450;11.052;2024-03-23T08:08:12;2.83;;;2.35;;
14272;SDS011;7220;49.450;11.052;2024-03-23T08:12:13;3.95;;;2.53;;
14272;SDS011;7220;49.450;11.052;2024-03-23T08:16:13;3.38;;;2.63;;
14272;SDS011;7220;49.450;11.052;2024-03-23T08:20:14;4.97;;;2.83;;
14272;SDS011;7220;49.450;11.052;2024-03-23T08:24:14;2.65;;;1.70;;
14272;SDS011;7220;49.450;11.052;2024-03-23T08:28:15;2.20;;;1.80;;
14272;SDS011;7220;49.450;11.052;2024-03-23T08:32:15;1.95;;;1.50;;
14272;SDS011;7220;49.450;11.052;2024-03-23T08:36:17;1.83;;;1.23;;
14272;SDS011;7220;49.450;11.052;2024-03-23T08:40:17;1.50;;;1.40;;
14272;SDS011;7220;49.450;11.052;2024-03-23T08:44:17;1.77;;;1.67;;
14272;SDS011;7220;49.450;11.052;2024-03-23T08:48:21;1.52;;;1.40;;
14272;SDS011;7220;49.450;11.052;2024-03-23T08:52:21;1.27;;;1.27;;
14272;SDS011;7220;49.450;11.052;2024-03-23T08:56:23;2.42;;;1.88;;
14272;SDS011;7220;49.450;11.052;2024-03-23T09:00:23;1.73;;;1.50;;
14272;SDS011;7220;49.450;11.052;2024-03-23T09:04:24;1.20;;;1.10;;
14272;SDS011;7220;49.450;11.052;2024-03-23T09:08:25;1.10;;;1.00;;
14272;SDS011;7220;49.450;11.052;2024-03-23T09:12:25;0.82;;;0.82;;
14272;SDS011;7220;49.450;11.052;2024-03-23T09:16:26;1.17;;;1.05;;
14272;SDS011;7220;49.450;11.052;2024-03-23T09:20:27;1.27;;;1.00;;
14272;SDS011;7220;49.450;11.052;2024-03-23T09:24:27;1.08;;;1.08;;
14272;SDS011;7220;49.450;11.052;2024-03-23T09:28:28;0.90;;;0.90;;
14272;SDS011;7220;49.450;11.052;2024-03-23T09:32:28;1.05;;;0.70;;
14272;SDS011;7220;49.450;11.052;2024-03-23T09:36:28;0.80;;;0.80;;
14272;SDS011;7220;49.450;11.052;2024-03-23T09:40:29;0.82;;;0.70;;
14272;SDS011;7220;49.450;11.052;2024-03-23T09:44:29;0.40;;;0.40;;
14272;SDS011;7220;49.450;11.052;2024-03-23T09:48:30;0.70;;;0.70;;
14272;SDS011;7220;49.450;11.052;2024-03-23T09:52:31;0.50;;;0.50;;
14272;SDS011;7220;49.450;11.052;2024-03-23T09:56:31;0.57;;;0.57;;
14272;SDS011;7220;49.450;11.052;2024-03-23T10:00:32;0.40;;;0.40;;
14272;SDS011;7220;49.450;11.052;2024-03-23T10:04:42;0.55;;;0.50;;
14272;SDS011;7220;49.450;11.052;2024-03-23T10:08:46;0.45;;;0.45;;
14272;SDS011;7220;49.450;11.052;2024-03-23T10:12:47;0.60;;;0.60;;
14272;SDS011;7220;49.450;11.052;2024-03-23T10:16:52;1.08;;;0.57;;
14272;SDS011;7220;49.450;11.052;2024-03-23T10:21:05;0.40;;;0.40;;
14272;SDS011;7220;49.450;11.052;2024-03-23T10:25:09;0.60;;;0.60;;
14272;SDS011;7220;49.450;11.052;2024-03-23T10:29:10;1.38;;;0.88;;
14272;SDS011;7220;49.450;11.052;2024-03-23T10:33:12;0.57;;;0.57;;
14272;SDS011;7220;49.450;11.052;2024-03-23T10:37:14;1.00;;;1.00;;
14272;SDS011;7220;49.450;11.052;2024-03-23T10:41:15;1.20;;;1.10;;
14272;SDS011;7220;49.450;11.052;2024-03-23T10:45:16;1.00;;;1.00;;
14272;SDS011;7220;49.450;11.052;2024-03-23T10:49:16;0.82;;;0.82;;
14272;SDS011;7220;49.450;11.052;2024-03-23T10:53:17;2.65;;;1.40;;
14272;SDS011;7220;49.450;11.052;2024-03-23T10:57:20;2.38;;;1.20;;
14272;SDS011;7220;49.450;11.052;2024-03-23T11:01:23;0.93;;;0.93;;
14272;SDS011;7220;49.450;11.052;2024-03-23T11:09:43;1.98;;;0.90;;
14272;SDS011;7220;49.450;11.052;2024-03-23T11:13:47;1.67;;;1.00;;
14272;SDS011;7220;49.450;11.052;2024-03-23T11:18:05;1.08;;;0.95;;
14272;SDS011;7220;49.450;11.052;2024-03-23T11:22:08;1.23;;;1.08;;
14272;SDS011;7220;49.450;11.052;2024-03-23T11:26:08;1.83;;;1.33;;
14272;SDS011;7220;49.450;11.052;2024-03-23T11:30:10;1.75;;;1.27;;
14272;SDS011;7220;49.450;11.052;2024-03-23T11:34:17;1.50;;;1.17;;
14272;SDS011;7220;49.450;11.052;2024-03-23T11:38:18;3.35;;;1.50;;
14272;SDS011;7220;49.450;11.052;2024-03-23T11:42:19;1.60;;;1.30;;
14272;SDS011;7220;49.450;11.052;2024-03-23T11:46:24;5.13;;;1.55;;
14272;SDS011;7220;49.450;11.052;2024-03-23T11:50:24;1.40;;;1.30;;
14272;SDS011;7220;49.450;11.052;2024-03-23T11:54:25;1.92;;;1.65;;
14272;SDS011;7220;49.450;11.052;2024-03-23T11:58:26;1.42;;;1.33;;
14272;SDS011;7220;49.450;11.052;2024-03-23T12:02:27;1.88;;;1.48;;
14272;SDS011;7220;49.450;11.052;2024-03-23T12:06:28;1.40;;;1.30;;
14272;SDS011;7220;49.450;11.052;2024-03-23T12:10:28;2.65;;;1.45;;
14272;SDS011;7220;49.450;11.052;2024-03-23T12:14:28;1.70;;;1.60;;
14272;SDS011;7220;49.450;11.052;2024-03-23T12:18:31;1.58;;;1.40;;
14272;SDS011;7220;49.450;11.052;2024-03-23T12:22:31;2.05;;;1.48;;
14272;SDS011;7220;49.450;11.052;2024-03-23T12:26:32;1.40;;;1.30;;
14272;SDS011;7220;49.450;11.052;2024-03-23T12:30:33;3.05;;;2.00;;
14272;SDS011;7220;49.450;11.052;2024-03-23T12:34:35;2.80;;;1.50;;
14272;SDS011;7220;49.450;11.052;2024-03-23T12:38:35;1.58;;;1.38;;
14272;SDS011;7220;49.450;11.052;2024-03-23T12:42:36;1.80;;;1.50;;
14272;SDS011;7220;49.450;11.052;2024-03-23T12:46:36;1.65;;;1.27;;
14272;SDS011;7220;49.450;11.052;2024-03-23T12:50:36;1.83;;;1.40;;
14272;SDS011;7220;49.450;11.052;2024-03-23T12:54:37;2.58;;;1.98;;
14272;SDS011;7220;49.450;11.052;2024-03-23T12:58:38;2.65;;;2.00;;
14272;SDS011;7220;49.450;11.052;2024-03-23T13:02:38;1.90;;;1.48;;
14272;SDS011;7220;49.450;11.052;2024-03-23T13:06:39;2.55;;;2.03;;
14272;SDS011;7220;49.450;11.052;2024-03-23T13:10:40;2.90;;;1.98;;
14272;SDS011;7220;49.450;11.052;2024-03-23T13:14:41;2.78;;;1.80;;
14272;SDS011;7220;49.450;11.052;2024-03-23T13:18:42;2.95;;;2.47;;
14272;SDS011;7220;49.450;11.052;2024-03-23T13:22:42;3.08;;;2.20;;
14272;SDS011;7220;49.450;11.052;2024-03-23T13:26:43;3.42;;;1.88;;
14272;SDS011;7220;49.450;11.052;2024-03-23T13:30:52;2.25;;;1.80;;
14272;SDS011;7220;49.450;11.052;2024-03-23T13:34:54;1.75;;;1.65;;
14272;SDS011;7220;49.450;11.052;2024-03-23T13:38:54;2.15;;;1.30;;
14272;SDS011;7220;49.450;11.052;2024-03-23T13:42:55;2.08;;;1.63;;
14272;SDS011;7220;49.450;11.052;2024-03-23T13:46:55;1.35;;;1.20;;
14272;SDS011;7220;49.450;11.052;2024-03-23T13:50:59;5.60;;;2.38;;
14272;SDS011;7220;49.450;11.052;2024-03-23T13:55:00;4.07;;;1.90;;
14272;SDS011;7220;49.450;11.052;2024-03-23T13:59:01;3.80;;;1.67;;
14272;SDS011;7220;49.450;11.052;2024-03-23T14:03:01;3.20;;;1.50;;
14272;SDS011;7220;49.450;11.052;2024-03-23T14:07:02;2.45;;;1.48;;
14272;SDS011;7220;49.450;11.052;2024-03-23T14:11:03;1.55;;;1.45;;
14272;SDS011;7220;49.450;11.052;2024-03-23T14:15:07;2.83;;;1.20;;
14272;SDS011;7220;49.450;11.052;2024-03-23T14:19:08;2.03;;;1.48;;
14272;SDS011;7220;49.450;11.052;2024-03-23T14:23:09;1.52;;;1.42;;
14272;SDS011;7220;49.450;11.052;2024-03-23T14:27:09;2.50;;;1.55;;
14272;SDS011;7220;49.450;11.052;2024-03-23T14:31:10;1.25;;;1.17;;
14272;SDS011;7220;49.450;11.052;2024-03-23T14:35:10;3.42;;;1.52;;
14272;SDS011;7220;49.450;11.052;2024-03-23T14:39:11;3.08;;;1.50;;
14272;SDS011;7220;49.450;11.052;2024-03-23T14:43:13;1.95;;;1.42;;
14272;SDS011;7220;49.450;11.052;2024-03-23T14:47:16;1.80;;;1.33;;
14272;SDS011;7220;49.450;11.052;2024-03-23T14:51:19;2.53;;;1.45;;
14272;SDS011;7220;49.450;11.052;2024-03-23T14:55:22;1.20;;;1.10;;
14272;SDS011;7220;49.450;11.052;2024-03-23T14:59:22;2.22;;;1.20;;
14272;SDS011;7220;49.450;11.052;2024-03-23T15:03:24;3.10;;;1.45;;
14272;SDS011;7220;49.450;11.052;2024-03-23T15:07:24;2.35;;;1.50;;
14272;SDS011;7220;49.450;11.052;2024-03-23T15:11:25;1.77;;;1.30;;
14272;SDS011;7220;49.450;11.052;2024-03-23T15:15:25;2.28;;;1.42;;
14272;SDS011;7220;49.450;11.052;2024-03-23T15:19:26;2.92;;;1.52;;
14272;SDS011;7220;49.450;11.052;2024-03-23T15:23:26;4.68;;;2.28;;
14272;SDS011;7220;49.450;11.052;2024-03-23T15:27:27;2.97;;;1.85;;
14272;SDS011;7220;49.450;11.052;2024-03-23T15:31:27;2.65;;;1.63;;
14272;SDS011;7220;49.450;11.052;2024-03-23T15:35:29;3.13;;;1.75;;
14272;SDS011;7220;49.450;11.052;2024-03-23T15:39:30;3.60;;;1.58;;
14272;SDS011;7220;49.450;11.052;2024-03-23T15:43:30;2.28;;;1.50;;
14272;SDS011;7220;49.450;11.052;2024-03-23T15:47:34;4.00;;;1.80;;
14272;SDS011;7220;49.450;11.052;2024-03-23T15:51:35;3.80;;;1.90;;
14272;SDS011;7220;49.450;11.052;2024-03-23T15:55:37;3.22;;;1.80;;
14272;SDS011;7220;49.450;11.052;2024-03-23T15:59:40;1.50;;;1.40;;
14272;SDS011;7220;49.450;11.052;2024-03-23T16:03:40;4.40;;;2.28;;
14272;SDS011;7220;49.450;11.052;2024-03-23T16:07:41;1.95;;;1.30;;
14272;SDS011;7220;49.450;11.052;2024-03-23T16:11:42;1.60;;;1.50;;
14272;SDS011;7220;49.450;11.052;2024-03-23T16:15:42;2.85;;;1.35;;
14272;SDS011;7220;49.450;11.052;2024-03-23T16:19:43;1.33;;;1.23;;
14272;SDS011;7220;49.450;11.052;2024-03-23T16:23:43;1.42;;;1.00;;
14272;SDS011;7220;49.450;11.052;2024-03-23T16:27:46;1.27;;;1.17;;
14272;SDS011;7220;49.450;11.052;2024-03-23T16:31:46;1.17;;;1.10;;
14272;SDS011;7220;49.450;11.052;2024-03-23T16:39:56;1.42;;;1.33;;
14272;SDS011;7220;49.450;11.052;2024-03-23T16:43:57;1.63;;;1.52;;
14272;SDS011;7220;49.450;11.052;2024-03-23T16:47:57;2.30;;;1.20;;
14272;SDS011;7220;49.450;11.052;2024-03-23T16:51:58;2.72;;;1.20;;
14272;SDS011;7220;49.450;11.052;2024-03-23T16:56:02;1.52;;;1.23;;
14272;SDS011;7220;49.450;11.052;2024-03-23T17:00:06;1.55;;;1.33;;
14272;SDS011;7220;49.450;11.052;2024-03-23T17:04:10;3.65;;;1.65;;
14272;SDS011;7220;49.450;11.052;2024-03-23T17:08:12;1.92;;;1.50;;
14272;SDS011;7220;49.450;11.052;2024-03-23T17:12:13;3.00;;;1.20;;
14272;SDS011;7220;49.450;11.052;2024-03-23T17:16:13;1.42;;;1.30;;
14272;SDS011;7220;49.450;11.052;2024-03-23T17:20:15;1.23;;;1.00;;
14272;SDS011;7220;49.450;11.052;2024-03-23T17:24:16;1.15;;;1.10;;
14272;SDS011;7220;49.450;11.052;2024-03-23T17:28:16;0.82;;;0.82;;
14272;SDS011;7220;49.450;11.052;2024-03-23T17:32:17;2.95;;;0.90;;
14272;SDS011;7220;49.450;11.052;2024-03-23T17:36:17;0.80;;;0.80;;
14272;SDS011;7220;49.450;11.052;2024-03-23T17:40:26;1.10;;;1.00;;
14272;SDS011;7220;49.450;11.052;2024-03-23T17:44:27;1.95;;;0.85;;
14272;SDS011;7220;49.450;11.052;2024-03-23T17:48:27;4.05;;;2.10;;
14272;SDS011;7220;49.450;11.052;2024-03-23T17:52:28;2.00;;;1.50;;
14272;SDS011;7220;49.450;11.052;2024-03-23T17:56:28;1.90;;;0.90;;
14272;SDS011;7220;49.450;11.052;2024-03-23T18:00:29;0.80;;;0.80;;
14272;SDS011;7220;49.450;11.052;2024-03-23T18:04:29;0.77;;;0.77;;
14272;SDS011;7220;49.450;11.052;2024-03-23T18:08:30;2.15;;;1.10;;
14272;SDS011;7220;49.450;11.052;2024-03-23T18:12:30;1.00;;;1.00;;
14272;SDS011;7220;49.450;11.052;2024-03-23T18:16:32;1.77;;;0.90;;
14272;SDS011;7220;49.450;11.052;2024-03-23T18:20:32;0.80;;;0.80;;
14272;SDS011;7220;49.450;11.052;2024-03-23T18:24:33;1.85;;;1.10;;
14272;SDS011;7220;49.450;11.052;2024-03-23T18:28:33;1.58;;;1.13;;
14272;SDS011;7220;49.450;11.052;2024-03-23T18:32:34;0.80;;;0.80;;
14272;SDS011;7220;49.450;11.052;2024-03-23T18:36:34;1.45;;;0.80;;
14272;SDS011;7220;49.450;11.052;2024-03-23T18:40:35;1.00;;;1.00;;
14272;SDS011;7220;49.450;11.052;2024-03-23T18:44:35;2.08;;;1.13;;
14272;SDS011;7220;49.450;11.052;2024-03-23T18:48:35;1.65;;;1.20;;
14272;SDS011;7220;49.450;11.052;2024-03-23T18:52:36;2.13;;;1.20;;
14272;SDS011;7220;49.450;11.052;2024-03-23T18:56:36;1.40;;;1.30;;
14272;SDS011;7220;49.450;11.052;2024-03-23T19:00:38;2.05;;;1.38;;
14272;SDS011;7220;49.450;11.052;2024-03-23T19:04:38;2.55;;;1.13;;
14272;SDS011;7220;49.450;11.052;2024-03-23T19:08:39;1.48;;;1.02;;
14272;SDS011;7220;49.450;11.052;2024-03-23T19:12:39;0.80;;;0.80;;
14272;SDS011;7220;49.450;11.052;2024-03-23T19:16:40;0.70;;;0.70;;
14272;SDS011;7220;49.450;11.052;2024-03-23T19:20:41;0.88;;;0.70;;
14272;SDS011;7220;49.450;11.052;2024-03-23T19:24:42;0.90;;;0.80;;
14272;SDS011;7220;49.450;11.052;2024-03-23T19:28:42;1.20;;;1.10;;
14272;SDS011;7220;49.450;11.052;2024-03-23T19:32:46;0.70;;;0.70;;
14272;SDS011;7220;49.450;11.052;2024-03-23T19:36:47;0.68;;;0.68;;
14272;SDS011;7220;49.450;11.052;2024-03-23T19:40:51;1.40;;;0.80;;
14272;SDS011;7220;49.450;11.052;2024-03-23T19:44:52;1.20;;;1.10;;
14272;SDS011;7220;49.450;11.052;2024-03-23T19:48:53;0.82;;;0.82;;
14272;SDS011;7220;49.450;11.052;2024-03-23T19:52:53;0.68;;;0.68;;
14272;SDS011;7220;49.450;11.052;2024-03-23T19:56:54;1.55;;;1.17;;
14272;SDS011;7220;49.450;11.052;2024-03-23T20:00:54;0.80;;;0.80;;
14272;SDS011;7220;49.450;11.052;2024-03-23T20:04:55;2.20;;;0.82;;
14272;SDS011;7220;49.450;11.052;2024-03-23T20:08:55;2.30;;;1.45;;
14272;SDS011;7220;49.450;11.052;2024-03-23T20:12:56;1.17;;;1.08;;
14272;SDS011;7220;49.450;11.052;2024-03-23T20:16:56;0.80;;;0.80;;
14272;SDS011;7220;49.450;11.052;2024-03-23T20:21:00;0.95;;;0.90;;
14272;SDS011;7220;49.450;11.052;2024-03-23T20:25:02;1.90;;;1.10;;
14272;SDS011;7220;49.450;11.052;2024-03-23T20:29:02;0.52;;;0.52;;
14272;SDS011;7220;49.450;11.052;2024-03-23T20:33:03;1.20;;;1.10;;
14272;SDS011;7220;49.450;11.052;2024-03-23T20:37:03;1.17;;;0.88;;
14272;SDS011;7220;49.450;11.052;2024-03-23T20:41:04;0.80;;;0.80;;
14272;SDS011;7220;49.450;11.052;2024-03-23T20:45:05;0.95;;;0.93;;
14272;SDS011;7220;49.450;11.052;2024-03-23T20:49:05;0.90;;;0.90;;
14272;SDS011;7220;49.450;11.052;2024-03-23T20:53:06;1.52;;;1.17;;
14272;SDS011;7220;49.450;11.052;2024-03-23T20:57:07;0.60;;;0.60;;
14272;SDS011;7220;49.450;11.052;2024-03-23T21:01:07;0.93;;;0.93;;
14272;SDS011;7220;49.450;11.052;2024-03-23T21:05:09;1.02;;;0.98;;
14272;SDS011;7220;49.450;11.052;2024-03-23T21:09:10;0.77;;;0.77;;
14272;SDS011;7220;49.450;11.052;2024-03-23T21:13:11;0.95;;;0.93;;
14272;SDS011;7220;49.450;11.052;2024-03-23T21:17:11;0.70;;;0.70;;
14272;SDS011;7220;49.450;11.052;2024-03-23T21:21:12;0.70;;;0.70;;
14272;SDS011;7220;49.450;11.052;2024-03-23T21:25:12;1.10;;;1.00;;
14272;SDS011;7220;49.450;11.052;2024-03-23T21:29:13;0.88;;;0.85;;
14272;SDS011;7220;49.450;11.052;2024-03-23T21:33:13;1.10;;;1.00;;
14272;SDS011;7220;49.450;11.052;2024-03-23T21:37:14;1.05;;;1.05;;
14272;SDS011;7220;49.450;11.052;2024-03-23T21:41:14;1.30;;;1.20;;
14272;SDS011;7220;49.450;11.052;2024-03-23T21:45:15;1.00;;;1.00;;
14272;SDS011;7220;49.450;11.052;2024-03-23T21:49:15;1.10;;;1.10;;
14272;SDS011;7220;49.450;11.052;2024-03-23T21:53:16;1.30;;;1.20;;
14272;SDS011;7220;49.450;11.052;2024-03-23T21:57:16;1.00;;;1.00;;
14272;SDS011;7220;49.450;11.052;2024-03-23T22:01:17;0.88;;;0.88;;
14272;SDS011;7220;49.450;11.052;2024-03-23T22:05:17;0.95;;;0.95;;
14272;SDS011;7220;49.450;11.052;2024-03-23T22:09:18;0.80;;;0.80;;
14272;SDS011;7220;49.450;11.052;2024-03-23T22:13:19;1.00;;;1.00;;
14272;SDS011;7220;49.450;11.052;2024-03-23T22:17:20;1.10;;;1.00;;
14272;SDS011;7220;49.450;11.052;2024-03-23T22:21:20;1.42;;;1.02;;
14272;SDS011;7220;49.450;11.052;2024-03-23T22:25:22;0.80;;;0.80;;
14272;SDS011;7220;49.450;11.052;2024-03-23T22:29:22;0.90;;;0.90;;
14272;SDS011;7220;49.450;11.052;2024-03-23T22:33:23;1.20;;;1.10;;
14272;SDS011;7220;49.450;11.052;2024-03-23T22:37:26;1.00;;;1.00;;
14272;SDS011;7220;49.450;11.052;2024-03-23T22:41:27;1.30;;;1.17;;
14272;SDS011;7220;49.450;11.052;2024-03-23T22:45:27;0.93;;;0.88;;
14272;SDS011;7220;49.450;11.052;2024-03-23T22:49:28;1.30;;;1.20;;
14272;SDS011;7220;49.450;11.052;2024-03-23T22:53:28;1.05;;;1.05;;
14272;SDS011;7220;49.450;11.052;2024-03-23T22:57:29;1.25;;;1.17;;
14272;SDS011;7220;49.450;11.052;2024-03-23T23:01:29;1.05;;;1.05;;
14272;SDS011;7220;49.450;11.052;2024-03-23T23:05:30;2.83;;;1.10;;
14272;SDS011;7220;49.450;11.052;2024-03-23T23:09:30;1.10;;;1.10;;
14272;SDS011;7220;49.450;11.052;2024-03-23T23:13:31;1.35;;;1.25;;
14272;SDS011;7220;49.450;11.052;2024-03-23T23:17:31;1.55;;;1.10;;
14272;SDS011;7220;49.450;11.052;2024-03-23T23:21:33;1.00;;;1.00;;
14272;SDS011;7220;49.450;11.052;2024-03-23T23:25:33;0.95;;;0.95;;
14272;SDS011;7220;49.450;11.052;2024-03-23T23:29:34;2.47;;;0.90;;
14272;SDS011;7220;49.450;11.052;2024-03-23T23:33:34;1.45;;;1.33;;
14272;SDS011;7220;49.450;11.052;2024-03-23T23:37:35;1.08;;;0.98;;
14272;SDS011;7220;49.450;11.052;2024-03-23T23:41:35;1.08;;;1.08;;
14272;SDS011;7220;49.450;11.052;2024-03-23T23:45:36;1.10;;;1.10;;
14272;SDS011;7220;49.450;11.052;2024-03-23T23:49:37;1.10;;;1.10;;
14272;SDS011;7220;49.450;11.052;2024-03-23T23:53:38;1.95;;;1.10;;
14272;SDS011;7220;49.450;11.052;2024-03-23T23:57:39;1.00;;;1.00;;
